createdAt,value
2023-04-07T00:01:00.901Z,52.55
2023-04-07T00:03:28.123Z,52.85
2023-04-07T00:05:55.128Z,51.83
2023-04-07T00:08:22.221Z,52.14
2023-04-07T00:10:51.228Z,52.80
2023-04-07T00:13:18.189Z,52.16
2023-04-07T00:15:45.213Z,52.50
2023-04-07T00:18:12.110Z,52.43
2023-04-07T00:20:39.350Z,51.97
2023-04-07T00:23:06.402Z,53.24
2023-04-07T00:25:33.364Z,52.25
2023-04-07T00:28:00.219Z,52.70
2023-04-07T00:30:27.074Z,52.01
2023-04-07T00:32:59.306Z,52.98
2023-04-07T00:35:26.421Z,52.41
2023-04-07T00:37:53.544Z,52.72
2023-04-07T00:40:20.417Z,52.80
2023-04-07T00:42:47.195Z,52.54
2023-04-07T00:45:14.139Z,53.36
2023-04-07T00:47:41.345Z,52.82
2023-04-07T00:50:08.915Z,53.24
2023-04-07T00:52:36.401Z,53.68
2023-04-07T00:55:03.803Z,52.42
2023-04-07T00:57:30.614Z,52.78
2023-04-07T00:59:57.836Z,53.05
2023-04-07T01:03:02.387Z,53.40
2023-04-07T01:05:48.116Z,53.31
2023-04-07T01:08:33.472Z,53.73
2023-04-07T01:11:09.056Z,53.67
2023-04-07T01:13:46.343Z,54.02
2023-04-07T01:16:19.161Z,53.77
2023-04-07T01:18:48.929Z,54.88
2023-04-07T01:21:18.336Z,54.48
2023-04-07T01:23:57.617Z,54.45
2023-04-07T01:26:33.695Z,54.59
2023-04-07T01:29:33.246Z,54.83
2023-04-07T01:32:02.421Z,54.82
2023-04-07T01:34:32.063Z,54.66
2023-04-07T01:37:01.773Z,54.11
2023-04-07T01:39:29.448Z,55.12
2023-04-07T01:41:58.676Z,55.17
2023-04-07T01:44:26.520Z,55.44
2023-04-07T01:46:55.883Z,55.66
2023-04-07T01:49:25.545Z,55.03
2023-04-07T01:51:53.433Z,55.38
2023-04-07T01:54:22.034Z,55.75
2023-04-07T01:56:48.866Z,56.09
2023-04-07T01:59:15.824Z,55.51
2023-04-07T02:01:42.739Z,55.43
2023-04-07T02:04:26.426Z,55.70
2023-04-07T02:07:01.899Z,56.03
2023-04-07T02:09:32.196Z,56.13
2023-04-07T02:12:01.576Z,56.34
2023-04-07T02:14:29.392Z,56.66
2023-04-07T02:16:56.674Z,56.02
2023-04-07T02:19:23.740Z,56.49
2023-04-07T02:21:52.385Z,56.75
2023-04-07T02:24:22.554Z,56.86
2023-04-07T02:26:49.675Z,57.06
2023-04-07T02:29:16.699Z,57.67
2023-04-07T02:31:43.880Z,57.32
2023-04-07T02:34:10.984Z,57.26
2023-04-07T02:36:40.797Z,58.08
2023-04-07T02:39:12.745Z,57.34
2023-04-07T02:41:40.124Z,58.61
2023-04-07T02:44:07.030Z,57.76
2023-04-07T02:46:34.019Z,58.95
2023-04-07T02:49:01.291Z,58.67
2023-04-07T02:51:28.056Z,58.83
2023-04-07T02:53:55.661Z,59.22
2023-04-07T02:56:22.981Z,59.38
2023-04-07T02:58:50.029Z,59.03
2023-04-07T03:01:17.049Z,59.54
2023-04-07T03:03:45.290Z,59.81
2023-04-07T03:06:12.397Z,59.48
2023-04-07T03:08:39.395Z,59.17
2023-04-07T03:11:06.639Z,59.80
2023-04-07T03:13:33.715Z,60.01
2023-04-07T03:16:00.461Z,60.29
2023-04-07T03:18:27.373Z,59.55
2023-04-07T03:20:55.766Z,58.94
2023-04-07T03:23:24.353Z,60.31
2023-04-07T03:25:51.116Z,59.56
2023-04-07T03:28:18.073Z,60.31
2023-04-07T03:30:44.963Z,59.60
2023-04-07T03:33:12.617Z,59.78
2023-04-07T03:35:39.629Z,60.46
2023-04-07T03:38:06.593Z,60.26
2023-04-07T03:40:33.887Z,60.15
2023-04-07T03:43:01.554Z,60.60
2023-04-07T03:45:28.439Z,59.78
2023-04-07T03:47:55.755Z,60.85
2023-04-07T03:50:22.811Z,60.39
2023-04-07T03:52:49.704Z,60.73
2023-04-07T03:55:16.667Z,59.90
2023-04-07T03:57:44.344Z,60.09
2023-04-07T04:00:11.912Z,59.93
2023-04-07T04:02:38.979Z,60.39
2023-04-07T04:05:06.128Z,60.85
2023-04-07T04:07:33.895Z,60.75
2023-04-07T04:10:00.697Z,60.42
2023-04-07T04:12:27.653Z,60.61
2023-04-07T04:14:54.774Z,61.17
2023-04-07T04:17:21.804Z,60.73
2023-04-07T04:19:48.820Z,60.41
2023-04-07T04:22:15.806Z,60.22
2023-04-07T04:24:42.861Z,60.06
2023-04-07T04:27:09.817Z,60.01
2023-04-07T04:29:37.197Z,60.42
2023-04-07T04:32:04.347Z,59.71
2023-04-07T04:34:31.682Z,60.31
2023-04-07T04:36:58.614Z,60.47
2023-04-07T04:39:25.602Z,60.21
2023-04-07T04:41:52.628Z,60.05
2023-04-07T04:44:19.641Z,60.42
2023-04-07T04:46:46.769Z,60.13
2023-04-07T04:49:14.847Z,60.34
2023-04-07T04:51:42.087Z,60.37
2023-04-07T04:54:08.940Z,59.92
2023-04-07T04:56:36.335Z,60.36
2023-04-07T04:59:08.053Z,60.21
2023-04-07T05:01:34.989Z,60.46
2023-04-07T05:04:02.070Z,60.81
2023-04-07T05:06:31.322Z,60.75
2023-04-07T05:08:58.345Z,59.36
2023-04-07T05:11:25.275Z,59.25
2023-04-07T05:13:52.488Z,58.55
2023-04-07T05:16:19.653Z,59.03
2023-04-07T05:18:46.764Z,59.40
2023-04-07T05:21:13.823Z,58.81
2023-04-07T05:23:42.010Z,58.20
2023-04-07T05:26:08.843Z,58.61
2023-04-07T05:28:35.669Z,57.61
2023-04-07T05:31:02.622Z,57.10
2023-04-07T05:33:29.676Z,55.43
2023-04-07T05:35:56.634Z,54.10
2023-04-07T05:38:23.520Z,52.50
2023-04-07T05:40:50.999Z,52.26
2023-04-07T05:43:18.121Z,52.07
2023-04-07T05:45:45.045Z,51.09
2023-04-07T05:48:12.568Z,51.45
2023-04-07T05:50:39.397Z,50.49
2023-04-07T05:53:06.497Z,50.44
2023-04-07T05:55:34.652Z,49.05
2023-04-07T05:58:01.784Z,48.67
2023-04-07T06:00:28.654Z,48.71
2023-04-07T06:02:55.767Z,48.41
2023-04-07T06:05:22.624Z,47.33
2023-04-07T06:07:52.365Z,46.02
2023-04-07T06:10:19.399Z,46.31
2023-04-07T06:12:46.321Z,43.83
2023-04-07T06:15:13.492Z,43.16
2023-04-07T06:17:40.610Z,42.61
2023-04-07T06:20:07.989Z,43.52
2023-04-07T06:22:34.812Z,40.45
2023-04-07T06:25:01.598Z,39.31
2023-04-07T06:27:28.703Z,35.37
2023-04-07T06:29:57.082Z,34.84
2023-04-07T06:32:24.114Z,32.99
2023-04-07T06:34:50.939Z,33.89
2023-04-07T06:37:20.787Z,32.90
2023-04-07T06:39:47.898Z,34.25
2023-04-07T06:42:15.012Z,33.27
2023-04-07T06:44:42.116Z,33.73
2023-04-07T06:47:09.587Z,31.95
2023-04-07T06:49:37.569Z,32.96
2023-04-07T06:52:05.473Z,34.18
2023-04-07T06:54:32.497Z,35.33
2023-04-07T06:56:59.354Z,33.70
2023-04-07T06:59:26.557Z,33.50
2023-04-07T07:01:53.569Z,35.41
2023-04-07T07:04:20.768Z,36.21
2023-04-07T07:06:47.752Z,35.27
2023-04-07T07:09:14.450Z,33.21
2023-04-07T07:11:41.318Z,33.24
2023-04-07T07:14:08.262Z,33.15
2023-04-07T07:16:35.083Z,34.28
2023-04-07T07:19:01.992Z,33.99
2023-04-07T07:21:28.907Z,33.26
2023-04-07T07:23:55.861Z,32.39
2023-04-07T07:26:22.821Z,30.65
2023-04-07T07:28:49.804Z,32.57
2023-04-07T07:31:17.004Z,31.67
2023-04-07T07:33:46.237Z,29.63
2023-04-07T07:36:13.412Z,30.88
2023-04-07T07:38:40.782Z,30.70
2023-04-07T07:41:08.014Z,31.14
2023-04-07T07:43:35.095Z,30.06
2023-04-07T07:46:02.056Z,31.20
2023-04-07T07:48:29.284Z,32.56
2023-04-07T07:50:57.236Z,30.64
2023-04-07T07:53:24.184Z,28.25
2023-04-07T07:55:51.488Z,28.96
2023-04-07T07:58:18.585Z,29.30
2023-04-07T08:00:45.466Z,28.45
2023-04-07T08:03:12.436Z,28.17
2023-04-07T08:05:39.439Z,29.89
2023-04-07T08:08:06.326Z,30.43
2023-04-07T08:10:33.145Z,31.28
2023-04-07T08:13:00.028Z,28.28
2023-04-07T08:15:27.420Z,26.76
2023-04-07T08:17:55.525Z,25.28
2023-04-07T08:20:24.179Z,25.38
2023-04-07T08:22:51.177Z,28.24
2023-04-07T08:25:18.318Z,27.16
2023-04-07T08:27:45.705Z,28.10
2023-04-07T08:30:12.994Z,25.98
2023-04-07T08:32:44.659Z,23.03
2023-04-07T08:35:14.243Z,22.30
2023-04-07T08:37:43.694Z,21.43
2023-04-07T08:40:11.242Z,21.40
2023-04-07T08:42:45.285Z,23.01
2023-04-07T08:45:13.824Z,21.76
2023-04-07T08:47:44.488Z,22.64
2023-04-07T08:50:12.098Z,21.81
2023-04-07T08:52:48.850Z,19.13
2023-04-07T08:55:15.988Z,19.22
2023-04-07T08:57:43.623Z,20.67
2023-04-07T09:00:11.549Z,20.99
2023-04-07T09:02:40.114Z,18.79
2023-04-07T09:05:09.195Z,19.41
2023-04-07T09:07:37.978Z,20.78
2023-04-07T09:10:05.956Z,17.05
2023-04-07T09:12:34.543Z,18.36
2023-04-07T09:15:01.563Z,18.98
2023-04-07T09:17:29.788Z,20.01
2023-04-07T09:19:57.878Z,22.08
2023-04-07T09:22:47.633Z,23.38
2023-04-07T09:25:24.159Z,22.08
2023-04-07T09:28:01.923Z,18.85
2023-04-07T09:30:30.695Z,18.10
2023-04-07T09:32:59.204Z,16.83
2023-04-07T09:35:28.546Z,17.84
2023-04-07T09:38:09.890Z,17.11
2023-04-07T09:40:37.826Z,16.85
2023-04-07T09:43:06.113Z,15.79
2023-04-07T09:45:36.514Z,14.75
2023-04-07T09:48:20.398Z,14.06
2023-04-07T09:50:51.214Z,14.56
2023-04-07T09:53:20.313Z,14.26
2023-04-07T09:55:48.282Z,13.56
2023-04-07T09:58:16.933Z,13.26
2023-04-07T10:00:44.638Z,16.36
2023-04-07T10:03:12.479Z,17.16
2023-04-07T10:05:39.688Z,17.78
2023-04-07T10:08:06.961Z,19.44
2023-04-07T10:10:36.910Z,17.26
2023-04-07T10:13:06.296Z,16.02
2023-04-07T10:15:33.806Z,14.10
2023-04-07T10:18:01.100Z,15.20
2023-04-07T10:20:29.680Z,13.67
2023-04-07T10:23:09.297Z,13.83
2023-04-07T10:25:37.581Z,14.05
2023-04-07T10:28:08.420Z,13.30
2023-04-07T10:30:36.655Z,13.92
2023-04-07T10:33:03.776Z,15.41
2023-04-07T10:36:07.494Z,15.59
2023-04-07T10:38:34.725Z,15.39
2023-04-07T10:41:42.553Z,14.55
2023-04-07T10:44:31.459Z,13.30
2023-04-07T10:47:01.233Z,15.43
2023-04-07T10:49:28.108Z,15.17
2023-04-07T10:52:27.506Z,15.18
2023-04-07T10:55:32.215Z,15.04
2023-04-07T10:58:25.811Z,15.52
2023-04-07T11:01:02.198Z,14.45
2023-04-07T11:03:31.172Z,15.08
2023-04-07T11:06:04.810Z,15.92
2023-04-07T11:08:36.472Z,19.61
2023-04-07T11:11:09.597Z,19.38
2023-04-07T11:13:45.135Z,16.85
2023-04-07T11:16:12.852Z,15.96
2023-04-07T11:18:41.595Z,14.63
2023-04-07T11:21:09.643Z,12.46
2023-04-07T11:23:46.671Z,13.57
2023-04-07T11:26:15.894Z,15.92
2023-04-07T11:28:52.039Z,14.82
2023-04-07T11:31:31.648Z,13.74
2023-04-07T11:34:05.060Z,13.49
2023-04-07T11:36:39.022Z,13.88
2023-04-07T11:39:06.066Z,14.75
2023-04-07T11:41:34.019Z,15.29
2023-04-07T11:44:05.677Z,16.07
2023-04-07T11:46:32.625Z,15.38
2023-04-07T11:49:14.024Z,13.79
2023-04-07T11:51:43.134Z,13.38
2023-04-07T11:54:11.348Z,13.40
2023-04-07T11:56:48.468Z,13.80
2023-04-07T11:59:25.240Z,13.60
2023-04-07T12:01:56.036Z,14.37
2023-04-07T12:04:24.231Z,15.55
2023-04-07T12:06:51.933Z,15.77
2023-04-07T12:09:34.977Z,15.56
2023-04-07T12:12:03.665Z,15.78
2023-04-07T12:14:30.609Z,16.17
2023-04-07T12:16:58.372Z,17.75
2023-04-07T12:19:29.057Z,21.51
2023-04-07T12:21:57.031Z,21.46
2023-04-07T12:24:24.317Z,22.57
2023-04-07T12:26:51.246Z,23.75
2023-04-07T12:29:20.418Z,22.64
2023-04-07T12:31:50.669Z,26.08
2023-04-07T12:34:18.400Z,28.33
2023-04-07T12:36:45.382Z,29.54
2023-04-07T12:39:12.473Z,30.74
2023-04-07T12:41:40.004Z,30.15
2023-04-07T12:44:07.017Z,31.24
2023-04-07T12:46:34.333Z,31.77
2023-04-07T12:49:01.450Z,31.35
2023-04-07T12:51:28.653Z,33.34
2023-04-07T12:53:55.579Z,32.33
2023-04-07T12:56:25.536Z,33.44
2023-04-07T12:58:53.611Z,32.45
2023-04-07T13:01:21.543Z,33.22
2023-04-07T13:03:48.904Z,32.74
2023-04-07T13:06:16.271Z,31.33
2023-04-07T13:08:43.187Z,32.99
2023-04-07T13:11:10.106Z,32.12
2023-04-07T13:13:37.307Z,33.31
2023-04-07T13:16:04.563Z,32.96
2023-04-07T13:18:31.494Z,32.00
2023-04-07T13:21:33.775Z,31.00
2023-04-07T13:23:45.729Z,31.91
2023-04-07T13:26:12.638Z,32.99
2023-04-07T13:28:39.983Z,34.10
2023-04-07T13:31:07.968Z,32.25
2023-04-07T13:33:35.221Z,33.53
2023-04-07T13:36:02.328Z,34.65
2023-04-07T13:38:29.166Z,34.01
2023-04-07T13:40:55.946Z,34.03
2023-04-07T13:43:22.830Z,34.20
2023-04-07T13:45:49.994Z,34.22
2023-04-07T13:48:17.534Z,34.28
2023-04-07T13:50:44.577Z,35.53
2023-04-07T13:53:11.613Z,37.46
2023-04-07T13:55:39.178Z,36.94
2023-04-07T13:58:06.209Z,35.10
2023-04-07T14:00:35.913Z,37.10
2023-04-07T14:03:04.693Z,35.33
2023-04-07T14:05:31.994Z,36.39
2023-04-07T14:07:58.781Z,36.25
2023-04-07T14:10:26.010Z,35.28
2023-04-07T14:12:53.271Z,36.25
2023-04-07T14:15:20.379Z,35.00
2023-04-07T14:17:47.315Z,35.23
2023-04-07T14:20:14.377Z,36.39
2023-04-07T14:22:41.423Z,37.37
2023-04-07T14:25:08.349Z,38.68
2023-04-07T14:27:35.639Z,38.49
2023-04-07T14:30:05.963Z,38.06
2023-04-07T14:32:34.570Z,39.00
2023-04-07T14:35:02.133Z,41.42
2023-04-07T14:37:29.639Z,41.24
2023-04-07T14:42:26.997Z,41.81
2023-04-07T14:44:53.926Z,40.26
2023-04-07T14:47:21.233Z,40.98
2023-04-07T14:49:51.861Z,40.02
2023-04-07T14:52:22.144Z,40.47
2023-04-07T14:54:49.323Z,41.61
2023-04-07T14:57:17.140Z,41.45
2023-04-07T14:59:44.289Z,42.69
2023-04-07T15:02:13.643Z,42.15
2023-04-07T15:04:43.687Z,43.41
2023-04-07T15:07:10.792Z,45.37
2023-04-07T15:09:37.798Z,47.18
2023-04-07T15:12:05.413Z,47.59
2023-04-07T15:14:32.390Z,47.53
2023-04-07T15:16:59.206Z,48.80
2023-04-07T15:19:26.067Z,50.25
2023-04-07T15:21:53.050Z,50.10
2023-04-07T15:24:21.720Z,48.52
2023-04-07T15:26:49.754Z,48.83
2023-04-07T15:29:16.689Z,49.84
2023-04-07T15:31:43.773Z,50.51
2023-04-07T15:34:12.103Z,51.53
2023-04-07T15:36:38.970Z,52.55
2023-04-07T15:39:09.995Z,52.58
2023-04-07T15:41:37.204Z,54.03
2023-04-07T15:44:04.594Z,54.36
2023-04-07T15:46:34.614Z,54.97
2023-04-07T15:49:02.020Z,55.46
2023-04-07T15:51:29.837Z,55.85
2023-04-07T15:53:56.889Z,56.43
2023-04-07T15:56:25.052Z,55.79
2023-04-07T15:58:52.154Z,54.18
2023-04-07T16:01:19.454Z,54.28
2023-04-07T16:03:47.960Z,53.93
2023-04-07T16:06:15.590Z,53.60
2023-04-07T16:08:42.555Z,53.50
2023-04-07T16:11:09.597Z,54.98
2023-04-07T16:13:36.453Z,56.57
2023-04-07T16:16:03.572Z,57.05
2023-04-07T16:18:30.578Z,56.78
2023-04-07T16:20:57.440Z,57.32
2023-04-07T16:23:24.701Z,58.67
2023-04-07T16:25:51.567Z,59.53
2023-04-07T16:28:18.557Z,59.30
2023-04-07T16:30:45.560Z,60.18
2023-04-07T16:33:13.095Z,60.32
2023-04-07T16:35:40.250Z,61.45
2023-04-07T16:38:07.220Z,61.95
2023-04-07T16:40:34.401Z,62.50
2023-04-07T16:43:01.779Z,62.14
2023-04-07T16:45:28.863Z,61.24
2023-04-07T16:47:56.311Z,61.10
2023-04-07T16:50:23.320Z,60.19
2023-04-07T16:52:50.618Z,60.39
2023-04-07T16:55:17.819Z,61.21
2023-04-07T16:57:44.677Z,61.62
2023-04-07T17:00:12.422Z,61.29
2023-04-07T17:02:39.471Z,62.38
2023-04-07T17:05:06.851Z,63.31
2023-04-07T17:07:33.676Z,64.16
2023-04-07T17:10:00.806Z,64.68
2023-04-07T17:12:28.216Z,65.66
2023-04-07T17:14:55.069Z,65.97
2023-04-07T17:17:22.238Z,66.47
2023-04-07T17:19:49.105Z,67.04
2023-04-07T17:22:16.469Z,67.30
2023-04-07T17:24:43.935Z,66.95
2023-04-07T17:27:10.896Z,67.67
2023-04-07T17:29:38.153Z,68.87
2023-04-07T17:32:05.562Z,68.77
2023-04-07T17:34:32.703Z,69.42
2023-04-07T17:36:59.853Z,69.63
2023-04-07T17:39:26.988Z,69.44
2023-04-07T17:41:53.968Z,70.03
2023-04-07T17:44:21.281Z,69.96
2023-04-07T17:46:49.099Z,71.48
2023-04-07T17:49:16.156Z,72.26
2023-04-07T17:51:43.163Z,72.12
2023-04-07T17:54:10.020Z,72.28
2023-04-07T17:56:38.304Z,72.45
2023-04-07T17:59:05.252Z,73.79
2023-04-07T18:01:32.497Z,72.97
2023-04-07T18:04:00.527Z,74.03
2023-04-07T18:06:28.717Z,75.40
2023-04-07T18:08:56.109Z,76.26
2023-04-07T18:11:23.077Z,77.46
2023-04-07T18:13:50.290Z,77.71
2023-04-07T18:16:22.078Z,77.18
2023-04-07T18:18:49.721Z,77.22
2023-04-07T18:21:16.743Z,78.08
2023-04-07T18:23:43.790Z,78.47
2023-04-07T18:26:13.886Z,78.77
2023-04-07T18:28:40.892Z,78.27
2023-04-07T18:31:08.435Z,78.60
2023-04-07T18:33:36.493Z,78.65
2023-04-07T18:36:07.295Z,79.26
2023-04-07T18:38:36.333Z,79.10
2023-04-07T18:41:03.981Z,78.85
2023-04-07T18:43:31.624Z,79.45
2023-04-07T18:45:59.869Z,79.12
2023-04-07T18:48:27.415Z,78.23
2023-04-07T18:50:55.743Z,77.67
2023-04-07T18:53:24.619Z,77.58
2023-04-07T18:55:52.714Z,78.24
2023-04-07T18:58:20.340Z,77.76
2023-04-07T19:00:50.206Z,77.84
2023-04-07T19:03:17.792Z,78.78
2023-04-07T19:05:47.430Z,78.31
2023-04-07T19:08:16.083Z,78.58
2023-04-07T19:10:46.449Z,78.78
2023-04-07T19:13:15.916Z,79.45
2023-04-07T19:15:46.528Z,79.40
2023-04-07T19:18:13.765Z,79.66
2023-04-07T19:20:40.782Z,79.71
2023-04-07T19:23:08.134Z,79.79
2023-04-07T19:25:35.314Z,79.98
2023-04-07T19:28:03.352Z,79.11
2023-04-07T19:30:30.516Z,78.70
2023-04-07T19:32:58.011Z,79.51
2023-04-07T19:35:25.225Z,79.84
2023-04-07T19:37:52.714Z,80.27
2023-04-07T19:40:20.017Z,80.03
2023-04-07T19:42:47.352Z,80.86
2023-04-07T19:45:14.585Z,80.22
2023-04-07T19:47:42.593Z,80.06
2023-04-07T19:50:11.448Z,80.48
2023-04-07T19:52:39.097Z,80.64
2023-04-07T19:55:07.873Z,80.90
2023-04-07T19:57:40.494Z,80.71
2023-04-07T20:00:11.041Z,80.42
2023-04-07T20:02:41.468Z,80.03
2023-04-07T20:05:09.115Z,79.96
2023-04-07T20:07:36.007Z,79.65
2023-04-07T20:10:04.116Z,79.36
2023-04-07T20:12:31.052Z,79.76
2023-04-07T20:14:58.039Z,79.49
2023-04-07T20:17:24.998Z,78.95
2023-04-07T20:19:55.862Z,78.34
2023-04-07T20:22:23.178Z,77.87
2023-04-07T20:24:50.077Z,78.27
2023-04-07T20:27:18.524Z,77.30
2023-04-07T20:29:45.411Z,77.75
2023-04-07T20:32:12.493Z,77.12
2023-04-07T20:34:39.606Z,77.74
2023-04-07T20:37:06.726Z,78.54
2023-04-07T20:39:33.757Z,78.85
2023-04-07T20:42:00.632Z,78.16
2023-04-07T20:44:29.734Z,77.69
2023-04-07T20:46:56.961Z,77.33
2023-04-07T20:49:23.973Z,76.97
2023-04-07T20:51:53.906Z,76.71
2023-04-07T20:54:20.720Z,76.55
2023-04-07T20:56:47.695Z,76.44
2023-04-07T20:59:14.738Z,76.51
2023-04-07T21:01:41.873Z,76.86
2023-04-07T21:04:10.065Z,78.34
2023-04-07T21:06:37.428Z,79.31
2023-04-07T21:09:06.067Z,79.17
2023-04-07T21:11:33.015Z,79.97
2023-04-07T21:14:00.401Z,79.21
2023-04-07T21:16:27.622Z,79.52
2023-04-07T21:18:54.617Z,81.11
2023-04-07T21:21:23.418Z,81.11
2023-04-07T21:23:50.585Z,81.34
2023-04-07T21:26:17.548Z,82.13
2023-04-07T21:28:44.431Z,82.67
2023-04-07T21:31:11.632Z,83.09
2023-04-07T21:33:39.560Z,82.73
2023-04-07T21:36:06.886Z,82.91
2023-04-07T21:38:33.932Z,83.63
2023-04-07T21:41:01.191Z,83.56
2023-04-07T21:43:29.055Z,84.21
2023-04-07T21:45:56.893Z,84.37
2023-04-07T21:48:24.848Z,83.75
2023-04-07T21:50:52.566Z,84.96
2023-04-07T21:53:19.721Z,84.37
2023-04-07T21:55:46.602Z,84.31
2023-04-07T21:58:13.549Z,84.63
2023-04-07T22:00:40.675Z,83.81
2023-04-07T22:03:08.042Z,84.46
2023-04-07T22:05:35.138Z,85.09
2023-04-07T22:08:03.539Z,84.09
2023-04-07T22:10:30.781Z,84.95
2023-04-07T22:12:57.837Z,84.01
2023-04-07T22:15:25.304Z,83.65
2023-04-07T22:17:52.325Z,84.04
2023-04-07T22:20:19.514Z,83.92
2023-04-07T22:22:46.688Z,83.61
2023-04-07T22:25:13.770Z,82.64
2023-04-07T22:27:40.823Z,81.72
2023-04-07T22:30:10.280Z,82.18
2023-04-07T22:32:37.233Z,81.96
2023-04-07T22:35:04.820Z,82.41
2023-04-07T22:37:31.702Z,83.62
2023-04-07T22:39:58.695Z,84.35
2023-04-07T22:42:25.747Z,84.47
2023-04-07T22:44:53.081Z,82.82
2023-04-07T22:47:21.865Z,83.62
2023-04-07T22:49:48.928Z,83.09
2023-04-07T22:52:15.909Z,83.18
2023-04-07T22:54:42.831Z,82.43
2023-04-07T22:57:09.986Z,82.26
2023-04-07T22:59:40.050Z,82.19
2023-04-07T23:02:07.097Z,81.52
2023-04-07T23:04:34.297Z,81.77
2023-04-07T23:07:01.660Z,82.00
2023-04-07T23:09:28.754Z,81.12
2023-04-07T23:11:57.239Z,80.84
2023-04-07T23:14:24.026Z,81.00
2023-04-07T23:16:51.404Z,81.50
2023-04-07T23:19:18.497Z,81.80
2023-04-07T23:21:45.625Z,81.54
2023-04-07T23:24:12.530Z,81.91
2023-04-07T23:26:39.406Z,81.50
2023-04-07T23:29:06.290Z,80.68
2023-04-07T23:31:33.346Z,81.14
2023-04-07T23:34:00.275Z,81.14
2023-04-07T23:36:27.465Z,81.28
2023-04-07T23:38:59.283Z,82.19
2023-04-07T23:41:26.335Z,80.90
2023-04-07T23:43:53.200Z,80.15
2023-04-07T23:46:20.130Z,79.84
2023-04-07T23:48:47.137Z,79.39
2023-04-07T23:51:14.884Z,79.57
2023-04-07T23:53:41.862Z,80.79
2023-04-07T23:56:09.423Z,80.53
2023-04-07T23:58:36.434Z,80.72
